Time;durP1;ratioP1;P1;durP2;ratioP2;P2;SDS_P1;SDS_P2;PMS_P1;PMS_P2;Temp;Humidity;BMP_temperature;BMP_pressure;BME280_temperature;BME280_humidity;BME280_pressure;Samples;Min_cycle;Max_cycle;Signal;HPM_P1;HPM_P2
2021/01/03 00:02:14;;;;;;;36.53;18.93;;;;;;;1.74;82.60;100487.66;124184;1146;22759;-67
2021/01/03 00:04:42;;;;;;;36.57;17.77;;;;;;;1.74;81.97;100484.97;124264;1148;22687;-67
2021/01/03 00:07:10;;;;;;;41.05;21.70;;;;;;;1.75;82.64;100488.48;120613;1148;22949;-66
2021/01/03 00:09:37;;;;;;;38.40;18.57;;;;;;;1.77;83.16;100486.47;119829;1147;24359;-66
2021/01/03 00:12:05;;;;;;;49.57;22.33;;;;;;;1.78;82.35;100493.52;120010;1148;22935;-67
2021/01/03 00:14:33;;;;;;;31.90;17.95;;;;;;;1.79;82.95;100489.81;119863;1148;27691;-66
2021/01/03 00:17:01;;;;;;;29.25;16.85;;;;;;;1.77;82.51;100494.53;119774;1148;22965;-66
2021/01/03 00:19:29;;;;;;;23.07;13.77;;;;;;;1.77;82.89;100498.05;124017;1148;23461;-67
2021/01/03 00:21:56;;;;;;;22.70;13.70;;;;;;;1.75;83.26;100502.77;124487;1146;22769;-67
2021/01/03 00:24:24;;;;;;;22.33;14.17;;;;;;;1.74;82.78;100498.40;124270;1145;22703;-67
2021/01/03 00:26:52;;;;;;;21.85;13.50;;;;;;;1.73;83.29;100498.61;124431;1145;22667;-67
2021/01/03 00:29:19;;;;;;;27.45;14.60;;;;;;;1.70;82.96;100493.58;124529;1142;23584;-67
2021/01/03 00:31:48;;;;;;;22.07;13.43;;;;;;;1.73;83.45;100498.61;124506;1144;23559;-67
2021/01/03 00:34:16;;;;;;;23.10;14.45;;;;;;;1.74;83.96;100490.34;124609;1143;22798;-67
2021/01/03 00:36:44;;;;;;;26.65;15.20;;;;;;;1.76;83.57;100490.16;121688;1144;22932;-66
2021/01/03 00:39:12;;;;;;;25.55;15.20;;;;;;;1.76;83.65;100492.85;124431;1144;22782;-67
2021/01/03 00:41:40;;;;;;;26.97;15.07;;;;;;;1.77;83.25;100487.30;124729;1144;22766;-67
2021/01/03 00:44:07;;;;;;;35.87;19.37;;;;;;;1.80;83.59;100480.75;124482;1142;23255;-67
2021/01/03 00:46:35;;;;;;;31.00;16.45;;;;;;;1.83;84.20;100484.94;124661;1144;22683;-67
2021/01/03 00:49:03;;;;;;;41.50;22.43;;;;;;;1.83;83.29;100480.40;124413;1144;22730;-67
2021/01/03 00:51:30;;;;;;;73.50;28.87;;;;;;;1.84;82.79;100475.86;124699;1144;22684;-67
2021/01/03 00:53:57;;;;;;;176.20;52.25;;;;;;;1.84;82.73;100481.23;124607;1144;22668;-67
2021/01/03 00:56:25;;;;;;;54.13;20.93;;;;;;;1.85;83.68;100482.91;124494;1143;23441;-67
2021/01/03 00:58:52;;;;;;;37.30;17.70;;;;;;;1.83;82.70;100487.62;124595;1144;23841;-67
2021/01/03 01:01:21;;;;;;;138.20;38.27;;;;;;;1.80;82.59;100480.75;124510;1143;22778;-67
2021/01/03 01:03:48;;;;;;;156.63;48.93;;;;;;;1.81;83.49;100486.95;124510;1144;22804;-68
2021/01/03 01:06:16;;;;;;;136.50;33.05;;;;;;;1.80;82.62;100483.43;124381;1144;22716;-67
2021/01/03 01:08:43;;;;;;;243.63;60.33;;;;;;;1.81;82.61;100486.95;124632;1142;22719;-67
2021/01/03 01:11:10;;;;;;;441.37;121.00;;;;;;;1.81;82.78;100485.11;124557;1144;22790;-67
2021/01/03 01:13:38;;;;;;;114.50;36.93;;;;;;;1.82;82.66;100478.72;124661;1143;22699;-67
2021/01/03 01:16:07;;;;;;;160.20;42.87;;;;;;;1.80;82.94;100477.22;124457;1143;22715;-67
2021/01/03 01:18:34;;;;;;;424.03;98.63;;;;;;;1.77;82.94;100471.19;124584;1144;23264;-67
2021/01/03 01:21:02;;;;;;;282.27;73.93;;;;;;;1.76;82.61;100466.83;124395;1144;23759;-67
2021/01/03 01:23:30;;;;;;;70.17;22.73;;;;;;;1.73;82.22;100471.73;124477;1142;24608;-67
2021/01/03 01:25:57;;;;;;;59.00;20.45;;;;;;;1.67;82.76;100478.64;124408;1142;22705;-67
2021/01/03 01:28:25;;;;;;;158.43;41.53;;;;;;;1.61;82.20;100475.81;124556;1142;23104;-67
2021/01/03 01:30:52;;;;;;;111.97;36.07;;;;;;;1.56;82.69;100471.00;124507;1142;23734;-67
2021/01/03 01:33:20;;;;;;;203.37;53.87;;;;;;;1.54;82.85;100481.08;124618;1144;22731;-67
2021/01/03 01:35:47;;;;;;;228.30;59.10;;;;;;;1.51;82.40;100476.05;124504;1144;22738;-67
2021/01/03 01:38:15;;;;;;;188.40;48.80;;;;;;;1.47;82.66;100463.98;124722;1143;22666;-67
2021/01/03 01:40:43;;;;;;;156.45;44.70;;;;;;;1.45;82.92;100474.05;124700;1144;22775;-67
2021/01/03 01:43:13;;;;;;;115.47;36.93;;;;;;;1.42;83.52;100477.11;124412;1144;23499;-67
2021/01/03 01:45:42;;;;;;;35.95;16.50;;;;;;;1.40;82.56;100476.45;124632;1144;22768;-67
2021/01/03 01:48:19;;;;;;;33.67;16.10;;;;;;;1.35;82.98;100474.28;124443;1143;22748;-67
2021/01/03 01:50:49;;;;;;;41.70;18.77;;;;;;;1.31;82.35;100481.00;124628;1144;23496;-67
2021/01/03 01:53:26;;;;;;;33.37;15.47;;;;;;;1.29;83.64;100487.58;124240;1145;22762;-67
2021/01/03 01:55:59;;;;;;;55.07;23.13;;;;;;;1.27;82.86;100489.59;124588;1143;22681;-67
2021/01/03 01:58:36;;;;;;;30.80;14.95;;;;;;;1.24;82.88;100485.41;124477;1144;22665;-67
2021/01/03 02:01:04;;;;;;;31.37;15.50;;;;;;;1.25;82.74;100492.45;124493;1144;22650;-67
2021/01/03 02:03:53;;;;;;;41.63;16.10;;;;;;;1.25;82.65;100494.30;124473;1144;22664;-67
2021/01/03 02:06:31;;;;;;;47.43;19.00;;;;;;;1.22;82.46;100491.95;124394;1144;22712;-67
2021/01/03 02:09:01;;;;;;;47.17;19.10;;;;;;;1.21;83.62;100495.65;124345;1144;23556;-67
2021/01/03 02:11:29;;;;;;;31.90;16.73;;;;;;;1.19;83.40;100503.88;124502;1144;22685;-67
2021/01/03 02:13:58;;;;;;;35.75;16.75;;;;;;;1.21;83.54;100511.75;124523;1144;23532;-67
2021/01/03 02:16:31;;;;;;;32.97;14.63;;;;;;;1.22;83.57;100500.01;122058;1144;22949;-66
2021/01/03 02:18:59;;;;;;;32.15;17.05;;;;;;;1.22;84.56;100503.53;124447;1144;23848;-67
2021/01/03 02:22:11;;;;;;;29.40;15.67;;;;;;;1.23;84.90;100510.58;124450;1144;22688;-67
2021/01/03 02:24:44;;;;;;;34.27;14.80;;;;;;;1.25;84.09;100507.72;124043;1147;22759;-67
2021/01/03 02:27:36;;;;;;;24.40;13.40;;;;;;;1.27;85.15;100501.17;124162;1148;24938;-67
2021/01/03 02:30:06;;;;;;;24.57;13.63;;;;;;;1.32;84.50;100498.78;123883;1148;22763;-67
2021/01/03 02:32:34;;;;;;;26.67;14.23;;;;;;;1.36;84.69;100499.28;124114;1148;22779;-67
2021/01/03 02:35:01;;;;;;;35.87;17.33;;;;;;;1.37;84.95;100487.53;124061;1146;22890;-67
2021/01/03 02:37:35;;;;;;;29.80;16.20;;;;;;;1.38;84.49;100497.27;124238;1147;22723;-67
2021/01/03 02:40:18;;;;;;;31.30;16.00;;;;;;;1.39;84.81;100493.56;123863;1148;22687;-67
2021/01/03 02:42:46;;;;;;;31.85;16.35;;;;;;;1.37;84.48;100506.33;124333;1147;22725;-67
2021/01/03 02:45:22;;;;;;;25.65;15.40;;;;;;;1.36;85.01;100504.65;124035;1147;22777;-67
2021/01/03 02:47:50;;;;;;;27.87;15.43;;;;;;;1.37;84.78;100492.90;124176;1147;23673;-67
2021/01/03 02:50:22;;;;;;;39.90;17.83;;;;;;;1.38;85.54;100495.41;123936;1148;22854;-67
2021/01/03 02:52:50;;;;;;;26.05;15.10;;;;;;;1.39;85.12;100505.14;124259;1147;24302;-67
2021/01/03 02:55:18;;;;;;;31.33;15.87;;;;;;;1.37;84.98;100491.05;124151;1147;23495;-67
2021/01/03 02:57:45;;;;;;;25.97;15.57;;;;;;;1.35;84.96;100502.97;124116;1148;22699;-67
2021/01/03 03:00:21;;;;;;;25.67;15.17;;;;;;;1.35;84.87;100500.29;124526;1142;22697;-67
2021/01/03 03:02:49;;;;;;;27.10;13.00;;;;;;;1.35;85.42;100509.18;124438;1144;22778;-65
2021/01/03 03:05:17;;;;;;;29.07;15.37;;;;;;;1.36;85.49;100501.96;124426;1144;23395;-65
2021/01/03 03:07:45;;;;;;;27.10;15.20;;;;;;;1.38;85.54;100502.63;124490;1145;22667;-65
2021/01/03 03:10:12;;;;;;;23.55;14.35;;;;;;;1.36;84.57;100508.17;124488;1143;22745;-65
2021/01/03 03:12:40;;;;;;;23.47;14.67;;;;;;;1.31;85.10;100513.22;124469;1143;22695;-65
2021/01/03 03:15:09;;;;;;;23.17;14.20;;;;;;;1.28;85.01;100504.70;124591;1144;23730;-65
2021/01/03 03:17:37;;;;;;;22.80;15.35;;;;;;;1.29;84.46;100515.27;124455;1144;22682;-65
2021/01/03 03:20:05;;;;;;;25.63;15.27;;;;;;;1.31;84.55;100507.84;124563;1144;22757;-65
2021/01/03 03:22:32;;;;;;;21.15;13.30;;;;;;;1.33;85.05;100515.73;124721;1143;22715;-65
2021/01/03 03:24:59;;;;;;;22.40;13.25;;;;;;;1.32;84.98;100504.16;124594;1143;22726;-65
2021/01/03 03:27:27;;;;;;;21.25;13.40;;;;;;;1.31;85.41;100512.38;124601;1144;22668;-65
2021/01/03 03:29:54;;;;;;;21.57;12.60;;;;;;;1.32;84.53;100503.31;124621;1144;22683;-65
2021/01/03 03:32:22;;;;;;;18.17;11.83;;;;;;;1.31;84.46;100510.53;124561;1144;23263;-67
2021/01/03 03:34:49;;;;;;;28.20;16.00;;;;;;;1.33;84.51;100502.30;124618;1144;22677;-67
2021/01/03 03:37:17;;;;;;;23.47;14.20;;;;;;;1.33;85.09;100500.46;124529;1142;22671;-67
2021/01/03 03:39:45;;;;;;;23.75;13.05;;;;;;;1.32;85.61;100508.69;124684;1142;22654;-67
2021/01/03 03:42:12;;;;;;;23.80;14.25;;;;;;;1.32;84.85;100516.73;124442;1143;22727;-67
2021/01/03 03:44:40;;;;;;;22.63;13.37;;;;;;;1.31;85.18;100515.90;124370;1145;23501;-67
2021/01/03 03:47:07;;;;;;;21.90;13.15;;;;;;;1.33;85.48;100523.78;124438;1144;23366;-67
2021/01/03 03:49:35;;;;;;;20.30;12.15;;;;;;;1.31;84.69;100515.90;124491;1144;23873;-67
2021/01/03 03:52:03;;;;;;;17.15;11.15;;;;;;;1.30;85.21;100513.42;124488;1144;22714;-67
2021/01/03 03:54:31;;;;;;;19.10;11.50;;;;;;;1.26;85.42;100504.03;124634;1143;22687;-67
2021/01/03 03:57:00;;;;;;;19.63;12.33;;;;;;;1.27;84.64;100511.08;124539;1143;23687;-66
2021/01/03 03:59:27;;;;;;;18.07;11.43;;;;;;;1.26;84.98;100510.23;124693;1143;22755;-67
2021/01/03 04:01:55;;;;;;;18.63;12.07;;;;;;;1.25;85.56;100513.93;124426;1144;22695;-67
2021/01/03 04:04:23;;;;;;;19.35;11.60;;;;;;;1.25;85.13;100516.61;124659;1144;22758;-67
2021/01/03 04:06:51;;;;;;;22.40;13.60;;;;;;;1.23;84.67;100518.63;124423;1143;22698;-66
2021/01/03 04:09:19;;;;;;;25.00;14.23;;;;;;;1.22;84.88;100525.00;124670;1143;23532;-66
2021/01/03 04:11:48;;;;;;;22.20;13.40;;;;;;;1.22;85.13;100525.00;124444;1142;22666;-67
2021/01/03 04:14:18;;;;;;;21.15;12.90;;;;;;;1.23;85.04;100517.79;124528;1143;22711;-67
2021/01/03 04:16:54;;;;;;;22.80;14.30;;;;;;;1.23;85.39;100520.48;124735;1142;22651;-66
2021/01/03 04:19:22;;;;;;;21.63;13.10;;;;;;;1.25;85.80;100519.30;124448;1142;24051;-66
2021/01/03 04:21:54;;;;;;;19.30;12.33;;;;;;;1.24;85.27;100517.63;124652;1142;23891;-66
2021/01/03 04:24:22;;;;;;;20.13;11.73;;;;;;;1.25;85.33;100523.83;124584;1142;22691;-66
2021/01/03 04:26:55;;;;;;;20.83;12.87;;;;;;;1.26;85.51;100531.71;124588;1143;23884;-66
2021/01/03 04:29:22;;;;;;;17.15;10.85;;;;;;;1.26;85.49;100520.97;124534;1144;22776;-66
2021/01/03 04:31:56;;;;;;;19.60;11.90;;;;;;;1.26;84.86;100534.39;124596;1142;22696;-67
2021/01/03 04:34:24;;;;;;;18.20;11.55;;;;;;;1.23;85.02;100524.00;124582;1144;22712;-67
2021/01/03 04:36:52;;;;;;;20.75;12.30;;;;;;;1.23;84.81;100526.68;124588;1144;22700;-66
2021/01/03 04:39:19;;;;;;;20.45;12.45;;;;;;;1.23;85.78;100526.68;124574;1143;22751;-67
2021/01/03 04:41:47;;;;;;;19.53;12.43;;;;;;;1.23;85.27;100529.36;124726;1142;22764;-66
2021/01/03 04:44:31;;;;;;;19.73;12.60;;;;;;;1.23;84.89;100524.00;124446;1142;22680;-66
2021/01/03 04:47:06;;;;;;;18.80;11.65;;;;;;;1.23;84.79;100523.16;124528;1144;22672;-67
2021/01/03 04:49:38;;;;;;;17.75;11.30;;;;;;;1.21;85.00;100528.70;124297;1144;22737;-66
2021/01/03 04:52:44;;;;;;;18.60;10.90;;;;;;;1.21;86.16;100527.86;124428;1144;23315;-66
2021/01/03 04:55:11;;;;;;;17.00;10.50;;;;;;;1.21;86.01;100527.86;123991;1148;22785;-67
2021/01/03 04:57:58;;;;;;;17.40;10.80;;;;;;;1.19;85.16;100528.03;124163;1148;22806;-67
2021/01/03 05:00:28;;;;;;;16.07;10.63;;;;;;;1.17;85.57;100527.36;124159;1148;22718;-67
2021/01/03 05:03:19;;;;;;;16.70;10.10;;;;;;;1.17;85.39;100538.09;124191;1148;22671;-66
2021/01/03 05:05:48;;;;;;;18.10;11.65;;;;;;;1.18;85.69;100530.88;123919;1147;22930;-66
2021/01/03 05:08:16;;;;;;;17.05;11.15;;;;;;;1.15;86.04;100536.62;124251;1148;22664;-66
2021/01/03 05:10:46;;;;;;;16.75;10.75;;;;;;;1.12;85.29;100534.27;124037;1148;22729;-66
2021/01/03 05:13:40;;;;;;;14.75;9.95;;;;;;;1.11;85.63;100536.12;124296;1147;22825;-66
2021/01/03 05:16:12;;;;;;;18.55;10.40;;;;;;;1.11;86.10;100541.48;124099;1147;22672;-67
2021/01/03 05:18:40;;;;;;;15.13;10.03;;;;;;;1.13;85.57;100542.16;124186;1146;23442;-66
2021/01/03 05:21:07;;;;;;;13.07;9.20;;;;;;;1.14;85.43;100549.20;123940;1148;23061;-66
2021/01/03 05:23:36;;;;;;;14.45;9.50;;;;;;;1.12;85.17;100551.22;124231;1147;22839;-66
2021/01/03 05:26:08;;;;;;;22.80;13.65;;;;;;;1.10;86.09;100533.60;124022;1148;23873;-66
2021/01/03 05:28:36;;;;;;;15.50;9.63;;;;;;;1.10;86.40;100547.02;124127;1147;22736;-66
2021/01/03 05:31:10;;;;;;;17.10;10.65;;;;;;;1.11;85.98;100560.27;124188;1147;22801;-66
2021/01/03 05:34:12;;;;;;;15.95;9.55;;;;;;;1.09;85.60;100553.40;124655;1143;22702;-66
2021/01/03 05:37:06;;;;;;;15.77;9.80;;;;;;;1.08;85.10;100555.23;124054;1147;22718;-66
2021/01/03 05:39:34;;;;;;;16.65;10.30;;;;;;;1.07;85.81;100556.25;124201;1146;22785;-66
2021/01/03 05:42:18;;;;;;;15.43;9.90;;;;;;;1.06;86.21;100550.05;124132;1148;22890;-66
2021/01/03 05:44:57;;;;;;;15.13;8.57;;;;;;;1.05;85.58;100550.20;124257;1147;22792;-66
2021/01/03 05:47:33;;;;;;;13.65;8.55;;;;;;;1.05;85.99;100547.53;124100;1146;22676;-67
2021/01/03 05:50:24;;;;;;;14.97;8.47;;;;;;;1.04;86.08;100549.37;124268;1145;22757;-66
2021/01/03 05:53:00;;;;;;;13.20;8.15;;;;;;;1.04;86.88;100546.69;124034;1146;23923;-66
2021/01/03 05:55:28;;;;;;;12.30;7.77;;;;;;;1.05;85.85;100548.37;123601;1146;22650;-66
2021/01/03 05:58:36;;;;;;;15.47;9.10;;;;;;;1.08;86.37;100551.72;124231;1146;23375;-66
2021/01/03 06:01:17;;;;;;;13.90;9.45;;;;;;;1.12;86.38;100553.06;124033;1147;22703;-66
2021/01/03 06:03:58;;;;;;;12.65;7.85;;;;;;;1.12;86.48;100543.16;124154;1147;23994;-66
2021/01/03 06:06:50;;;;;;;12.00;7.77;;;;;;;1.13;86.13;100552.05;123965;1147;23691;-66
2021/01/03 06:09:21;;;;;;;14.80;8.80;;;;;;;1.12;85.95;100545.84;124201;1147;22716;-66
2021/01/03 06:12:27;;;;;;;13.87;8.00;;;;;;;1.12;86.05;100553.06;124045;1147;22741;-66
2021/01/03 06:14:59;;;;;;;11.27;7.10;;;;;;;1.11;86.68;100554.06;124260;1147;22719;-66
2021/01/03 06:17:33;;;;;;;13.27;7.57;;;;;;;1.09;86.87;100553.40;124189;1148;22757;-66
2021/01/03 06:20:15;;;;;;;15.53;7.93;;;;;;;1.08;85.81;100555.23;124341;1147;23752;-67
2021/01/03 06:22:49;;;;;;;13.10;7.23;;;;;;;1.09;86.54;100550.71;124151;1147;23414;-67
2021/01/03 06:25:42;;;;;;;10.33;6.50;;;;;;;1.10;86.56;100547.02;124396;1147;22871;-66
2021/01/03 06:28:26;;;;;;;10.05;6.70;;;;;;;1.10;86.12;100547.86;124154;1145;23662;-66
2021/01/03 06:31:31;;;;;;;10.90;6.65;;;;;;;1.11;86.00;100554.06;124279;1147;22815;-66
2021/01/03 06:33:58;;;;;;;10.30;7.00;;;;;;;1.09;86.29;100553.40;124080;1148;23561;-66
2021/01/03 06:36:45;;;;;;;11.50;7.15;;;;;;;1.10;86.29;100555.08;124417;1145;22780;-66
2021/01/03 06:39:51;;;;;;;14.20;8.10;;;;;;;1.08;86.83;100552.56;124102;1146;23563;-66
2021/01/03 06:42:30;;;;;;;20.63;11.00;;;;;;;1.08;87.03;100563.29;124118;1147;23152;-66
2021/01/03 06:45:52;;;;;;;33.67;15.03;;;;;;;1.10;86.39;100563.97;124125;1147;22863;-67
2021/01/03 06:48:31;;;;;;;19.55;10.00;;;;;;;1.13;86.25;100557.42;123978;1147;24392;-67
2021/01/03 06:51:17;;;;;;;33.90;17.90;;;;;;;1.16;86.86;100557.05;124257;1147;22820;-66
2021/01/03 06:54:06;;;;;;;18.20;11.60;;;;;;;1.19;86.29;100556.72;124082;1147;23623;-66
2021/01/03 06:56:48;;;;;;;17.77;10.13;;;;;;;1.21;86.32;100560.07;124387;1147;23511;-66
2021/01/03 06:59:34;;;;;;;16.93;10.00;;;;;;;1.23;86.86;100556.20;124167;1147;22708;-66
2021/01/03 07:02:01;;;;;;;17.90;9.57;;;;;;;1.25;87.47;100554.20;124292;1147;22730;-66
2021/01/03 07:04:32;;;;;;;16.90;9.70;;;;;;;1.26;87.00;100546.98;124159;1146;22730;-66
2021/01/03 07:07:01;;;;;;;16.60;9.97;;;;;;;1.25;87.22;100551.52;120578;1148;26393;-66
2021/01/03 07:09:29;;;;;;;12.73;8.07;;;;;;;1.25;86.83;100559.56;124144;1145;22830;-67
2021/01/03 07:11:57;;;;;;;14.65;9.10;;;;;;;1.24;87.30;100565.94;124330;1147;23342;-67
2021/01/03 07:14:24;;;;;;;12.35;8.15;;;;;;;1.26;87.06;100560.40;124190;1147;22807;-65
2021/01/03 07:17:01;;;;;;;13.40;8.20;;;;;;;1.27;87.35;100557.55;124219;1146;22706;-65
2021/01/03 07:19:35;;;;;;;14.75;8.58;;;;;;;1.27;87.24;100560.23;124281;1146;23489;-65
2021/01/03 07:22:13;;;;;;;20.17;9.77;;;;;;;1.31;86.54;100564.22;124395;1144;22694;-67
2021/01/03 07:24:43;;;;;;;18.10;10.37;;;;;;;1.32;87.10;100554.33;124385;1144;22875;-67
2021/01/03 07:27:35;;;;;;;14.50;8.20;;;;;;;1.35;87.21;100554.82;124724;1143;24197;-67
2021/01/03 07:30:03;;;;;;;13.10;7.80;;;;;;;1.37;86.89;100550.13;124459;1144;22719;-65
2021/01/03 07:32:33;;;;;;;13.05;8.55;;;;;;;1.38;86.95;100553.64;124605;1144;22715;-65
2021/01/03 07:35:31;;;;;;;12.27;8.43;;;;;;;1.38;87.82;100562.53;124439;1144;22733;-69
2021/01/03 07:38:21;;;;;;;16.27;9.80;;;;;;;1.38;87.03;100551.80;124640;1142;22701;-68
2021/01/03 07:40:49;;;;;;;12.40;7.30;;;;;;;1.37;87.21;100554.66;124465;1142;22677;-66
2021/01/03 07:43:17;;;;;;;20.30;11.25;;;;;;;1.38;87.41;100557.17;124704;1144;22667;-64
2021/01/03 07:45:45;;;;;;;12.50;7.95;;;;;;;1.38;87.40;100551.80;124413;1143;22650;-64
2021/01/03 07:48:31;;;;;;;14.75;7.90;;;;;;;1.40;87.13;100551.63;124715;1144;23409;-66
2021/01/03 07:50:58;;;;;;;15.27;8.33;;;;;;;1.41;87.54;100553.30;124513;1144;22711;-65
2021/01/03 07:53:33;;;;;;;17.00;9.90;;;;;;;1.40;87.15;100543.57;124386;1144;23773;-67
2021/01/03 07:56:20;;;;;;;13.43;7.70;;;;;;;1.41;88.10;100545.25;124416;1143;22712;-65
2021/01/03 07:58:51;;;;;;;12.00;7.25;;;;;;;1.39;88.00;100548.11;124519;1142;22716;-65
2021/01/03 08:01:20;;;;;;;12.33;7.43;;;;;;;1.43;87.36;100547.77;124502;1144;22675;-65
2021/01/03 08:03:47;;;;;;;12.70;8.17;;;;;;;1.47;88.07;100543.70;124582;1143;22681;-65
2021/01/03 08:06:14;;;;;;;13.53;8.47;;;;;;;1.48;87.13;100537.31;124504;1144;22667;-66
2021/01/03 08:08:42;;;;;;;11.15;7.10;;;;;;;1.49;87.51;100545.20;124647;1144;23592;-66
2021/01/03 08:11:53;;;;;;;17.45;9.70;;;;;;;1.50;88.20;100546.04;124209;1144;22693;-66
2021/01/03 08:14:25;;;;;;;15.30;9.13;;;;;;;1.51;87.10;100539.66;124234;1146;23590;-66
2021/01/03 08:16:58;;;;;;;15.95;8.75;;;;;;;1.53;87.89;100538.48;124204;1146;22788;-66
2021/01/03 08:19:25;;;;;;;14.25;9.40;;;;;;;1.56;87.31;100548.88;124023;1149;22693;-66
2021/01/03 08:22:00;;;;;;;23.20;12.20;;;;;;;1.61;87.78;100564.45;123969;1147;24772;-66
2021/01/03 08:24:29;;;;;;;18.10;10.35;;;;;;;1.64;88.21;100562.26;124376;1146;22702;-67
2021/01/03 08:27:01;;;;;;;27.47;12.77;;;;;;;1.67;88.29;100561.91;124063;1147;22677;-66
2021/01/03 08:29:47;;;;;;;18.03;9.50;;;;;;;1.69;88.09;100554.53;124205;1148;23396;-67
2021/01/03 08:32:17;;;;;;;12.67;7.33;;;;;;;1.75;88.04;100569.08;124018;1147;22695;-67
2021/01/03 08:34:46;;;;;;;19.45;10.35;;;;;;;1.75;87.22;100569.08;124145;1148;22708;-67
2021/01/03 08:37:21;;;;;;;13.83;8.57;;;;;;;1.74;87.51;100573.63;123965;1147;22796;-67
2021/01/03 08:39:49;;;;;;;15.50;9.80;;;;;;;1.75;87.70;100563.72;122910;1148;22889;-66
2021/01/03 08:42:33;;;;;;;24.90;14.80;;;;;;;1.65;87.42;100553.19;119437;1148;24646;-65
2021/01/03 08:45:01;;;;;;;17.30;10.40;;;;;;;1.77;88.03;100567.91;119627;1144;23070;-66
2021/01/03 08:47:35;;;;;;;17.50;8.75;;;;;;;1.67;88.20;100534.22;124562;1143;24101;-66
2021/01/03 08:50:28;;;;;;;17.85;9.95;;;;;;;1.81;87.67;100567.56;124281;1144;22826;-66
2021/01/03 08:53:04;;;;;;;18.00;10.40;;;;;;;1.79;88.05;100565.05;124481;1144;22703;-66
2021/01/03 08:55:38;;;;;;;15.85;9.10;;;;;;;1.78;88.09;100557.99;124443;1144;22716;-66
2021/01/03 08:58:14;;;;;;;16.67;9.10;;;;;;;1.78;87.62;100552.63;124465;1143;22792;-66
2021/01/03 09:00:44;;;;;;;14.93;8.90;;;;;;;1.81;88.26;100554.12;124682;1144;22679;-66
2021/01/03 09:03:16;;;;;;;12.33;8.23;;;;;;;1.83;87.33;100546.73;124541;1142;23516;-65
2021/01/03 09:05:43;;;;;;;16.83;9.23;;;;;;;1.84;87.95;100559.99;124340;1144;23323;-64
2021/01/03 09:08:42;;;;;;;16.15;9.80;;;;;;;1.85;87.09;100560.83;124436;1144;23370;-65
2021/01/03 09:11:18;;;;;;;;;;;;;;;1.90;88.19;100566.49;124283;1147;23088;-63
2021/01/03 09:13:48;;;;;;;13.45;8.50;;;;;;;1.94;87.81;100559.76;124204;1147;23602;-63
2021/01/03 09:16:30;;;;;;;13.90;8.85;;;;;;;1.99;87.79;100570.83;124231;1147;22815;-65
2021/01/03 09:19:02;;;;;;;14.47;9.00;;;;;;;2.02;87.68;100578.55;124065;1147;23568;-66
2021/01/03 09:21:30;;;;;;;13.95;8.75;;;;;;;2.01;87.21;100575.02;124204;1147;22718;-65
2021/01/03 09:24:04;;;;;;;14.60;8.97;;;;;;;1.92;87.00;100559.09;124172;1146;22787;-67
2021/01/03 09:26:39;;;;;;;15.73;9.03;;;;;;;2.04;88.01;100576.48;124243;1146;22778;-70
2021/01/03 09:29:08;;;;;;;13.80;8.50;;;;;;;2.06;87.83;100577.16;123988;1147;22839;-65
2021/01/03 09:31:36;;;;;;;13.10;8.10;;;;;;;2.05;87.25;100565.56;124272;1147;22746;-66
2021/01/03 09:34:17;;;;;;;12.00;8.05;;;;;;;2.05;86.92;100573.63;124287;1147;22742;-66
2021/01/03 09:36:46;;;;;;;11.77;8.00;;;;;;;2.03;87.15;100566.75;124384;1145;22728;-66
2021/01/03 09:39:20;;;;;;;12.70;8.80;;;;;;;2.04;86.52;100568.42;124337;1146;23532;-66
2021/01/03 09:42:20;;;;;;;12.53;8.77;;;;;;;2.04;87.00;100557.67;124220;1146;22720;-66
2021/01/03 09:45:10;;;;;;;13.77;9.37;;;;;;;2.05;86.86;100560.19;124164;1145;22723;-66
2021/01/03 09:47:42;;;;;;;16.20;9.85;;;;;;;2.00;86.66;100546.47;124430;1142;23274;-66
2021/01/03 09:50:24;;;;;;;11.50;8.20;;;;;;;2.12;86.77;100554.95;124568;1142;23357;-66
2021/01/03 09:53:20;;;;;;;15.33;9.27;;;;;;;2.13;86.72;100552.09;124628;1144;23283;-65
2021/01/03 09:56:08;;;;;;;18.65;10.45;;;;;;;2.15;86.19;100543.02;124580;1142;23232;-65
2021/01/03 09:58:39;;;;;;;15.43;9.93;;;;;;;2.15;85.95;100551.91;124546;1144;22681;-66
2021/01/03 10:01:26;;;;;;;16.20;10.17;;;;;;;2.15;86.66;100546.54;124422;1144;22664;-66
2021/01/03 10:03:54;;;;;;;13.10;8.85;;;;;;;2.13;85.95;100538.65;124558;1142;23260;-65
2021/01/03 10:06:21;;;;;;;13.17;8.87;;;;;;;2.12;86.16;100545.04;124440;1142;23354;-66
2021/01/03 10:08:48;;;;;;;13.85;9.00;;;;;;;2.13;86.43;100533.27;124681;1142;22677;-65
2021/01/03 10:11:30;;;;;;;12.50;9.07;;;;;;;2.16;86.36;100540.15;124388;1144;24010;-66
2021/01/03 10:13:59;;;;;;;13.30;8.70;;;;;;;2.17;85.73;100536.42;124673;1144;23181;-65
2021/01/03 10:16:28;;;;;;;17.17;9.37;;;;;;;2.16;85.53;100537.46;122030;1144;26372;-65
2021/01/03 10:18:56;;;;;;;22.40;12.70;;;;;;;2.20;85.74;100528.00;124558;1142;22657;-66
2021/01/03 10:21:33;;;;;;;26.65;15.20;;;;;;;2.23;85.49;100527.65;124467;1143;25586;-66
2021/01/03 10:24:16;;;;;;;24.97;14.43;;;;;;;2.26;86.09;100529.15;124825;1143;22707;-66
2021/01/03 10:26:46;;;;;;;19.43;11.30;;;;;;;2.28;86.33;100525.27;124476;1142;22881;-66
2021/01/03 10:29:14;;;;;;;25.30;14.57;;;;;;;2.31;85.66;100519.50;124483;1144;22786;-65
2021/01/03 10:31:44;;;;;;;19.15;11.80;;;;;;;2.33;85.49;100522.86;124512;1142;23630;-66
2021/01/03 10:34:13;;;;;;;15.37;10.53;;;;;;;2.34;85.19;100521.00;124529;1144;23369;-66
2021/01/03 10:36:40;;;;;;;17.77;10.90;;;;;;;2.26;85.14;100503.09;124669;1144;22772;-66
2021/01/03 10:39:08;;;;;;;17.90;9.90;;;;;;;2.28;85.61;100501.06;124541;1143;23875;-66
2021/01/03 10:41:36;;;;;;;16.10;10.30;;;;;;;2.37;85.47;100505.35;124667;1142;22811;-66
2021/01/03 10:44:05;;;;;;;14.53;8.93;;;;;;;2.37;85.33;100497.28;124439;1143;22758;-66
2021/01/03 10:46:32;;;;;;;14.50;9.17;;;;;;;2.37;85.56;100497.28;124463;1144;23452;-66
2021/01/03 10:49:00;;;;;;;16.40;10.15;;;;;;;2.39;85.11;100497.94;124368;1144;22988;-66
2021/01/03 10:51:41;;;;;;;19.47;12.37;;;;;;;2.38;85.42;100495.44;124476;1144;22779;-65
2021/01/03 10:54:11;;;;;;;13.80;9.30;;;;;;;2.39;84.88;100497.11;124280;1144;22670;-66
2021/01/03 10:56:38;;;;;;;12.70;8.20;;;;;;;2.36;84.63;100489.39;124641;1144;23540;-66
2021/01/03 10:59:06;;;;;;;20.05;11.25;;;;;;;2.34;84.85;100500.33;124587;1143;22700;-66
2021/01/03 11:01:37;;;;;;;19.40;10.90;;;;;;;2.33;85.00;100492.44;124698;1144;22723;-66
2021/01/03 11:04:06;;;;;;;18.83;10.57;;;;;;;2.33;85.02;100493.27;124528;1144;22657;-66
2021/01/03 11:07:34;;;;;;;20.90;12.60;;;;;;;2.32;84.89;100486.22;120239;1147;22887;-65
2021/01/03 11:10:06;;;;;;;18.00;11.00;;;;;;;2.33;83.95;100492.44;124206;1146;22752;-65
2021/01/03 11:12:33;;;;;;;15.75;9.75;;;;;;;2.31;84.53;100497.99;124337;1145;22674;-65
2021/01/03 11:15:04;;;;;;;17.30;9.80;;;;;;;2.29;83.94;100497.37;124326;1147;23282;-66
2021/01/03 11:17:51;;;;;;;18.40;10.77;;;;;;;2.28;84.58;100495.69;124209;1147;23290;-65
2021/01/03 11:20:18;;;;;;;16.57;10.23;;;;;;;2.28;84.18;100492.17;124207;1147;22727;-65
2021/01/03 11:22:46;;;;;;;18.25;11.95;;;;;;;2.30;84.14;100485.59;124317;1147;22703;-65
2021/01/03 11:25:14;;;;;;;21.60;13.00;;;;;;;2.27;84.20;100477.88;124168;1145;23481;-65
2021/01/03 11:27:42;;;;;;;18.75;11.40;;;;;;;2.30;84.17;100490.97;124379;1145;22743;-65
2021/01/03 11:30:10;;;;;;;19.67;10.10;;;;;;;2.28;83.77;100487.63;123983;1147;22673;-66
2021/01/03 11:32:37;;;;;;;17.57;10.63;;;;;;;2.29;84.17;100491.15;124290;1147;22719;-65
2021/01/03 11:35:06;;;;;;;19.45;11.30;;;;;;;2.27;83.84;100491.33;124202;1147;22699;-65
2021/01/03 11:37:33;;;;;;;15.95;9.40;;;;;;;2.29;84.56;100497.37;124342;1147;23682;-65
2021/01/03 11:40:02;;;;;;;12.30;8.10;;;;;;;2.27;83.79;100487.80;124194;1147;22657;-65
2021/01/03 11:42:37;;;;;;;10.87;7.83;;;;;;;2.24;83.92;100494.37;124292;1145;22715;-65